Hunters Hill, Australia
Current Conditions -  °F | °C
As of 3:00 AM on Friday 30 Jan 2015 (Local Time) from YMAY Reporting Station
Clear Clear  
Wind Chill: 13°   Ceiling: Unl
Heat Index: 13°   Visibility: 6mi
Dew Point:   Wind: 5mph
Humidity: 58%   Direction: 170°S
Pressure: 29.91"   Gusts: NA
Location:  36.22°S, 147.53°E
Report Text: YMAY 291600Z AUTO 17004KT 9999 // NCD 13/05 Q1013
Loading
Personal Weather Stations






























Interactive Weather Map New forecast layout! Learn more

10-Day Weather Forecast

Advertisements
Track Severe Weather on mobile